Satellite Precipitation Estimates (TXUS20 KWBC)
Issued by NWS

Home | Current Version | Previous Version | Text Only | Print | Product List | Glossary On
Versions: 1 2 3 4 5 6 7 8 9
000
SPTD31 TTPP 271640 CCA
SPECI
TTCP 271634Z 12014KT 9999 FEW012CB 29/24 Q1013 NOSIG=



USA.gov is the U.S. government's official web portal to all federal, state and local government web resources and services.